createdAt,value
2022-09-28T00:00:25.943Z,100.00
2022-09-28T00:05:49.044Z,100.00
2022-09-28T00:10:56.147Z,100.00
2022-09-28T00:16:07.594Z,100.00
2022-09-28T00:21:19.772Z,100.00
2022-09-28T00:26:23.996Z,100.00
2022-09-28T00:31:30.400Z,100.00
2022-09-28T00:36:35.225Z,100.00
2022-09-28T00:41:39.352Z,100.00
2022-09-28T00:46:42.514Z,100.00
2022-09-28T00:51:47.508Z,100.00
2022-09-28T00:56:50.819Z,100.00
2022-09-28T01:01:54.069Z,100.00
2022-09-28T01:06:59.389Z,100.00
2022-09-28T01:12:03.015Z,100.00
2022-09-28T01:17:41.848Z,100.00
2022-09-28T01:23:19.366Z,100.00
2022-09-28T01:28:28.303Z,100.00
2022-09-28T01:33:40.319Z,100.00
2022-09-28T01:39:11.275Z,100.00
2022-09-28T01:44:18.692Z,100.00
2022-09-28T01:49:27.931Z,100.00
2022-09-28T01:54:53.159Z,100.00
2022-09-28T02:00:03.737Z,100.00
2022-09-28T02:05:20.872Z,100.00
2022-09-28T02:10:30.633Z,100.00
2022-09-28T02:15:33.637Z,100.00
2022-09-28T02:20:41.169Z,100.00
2022-09-28T02:25:51.896Z,100.00
2022-09-28T02:30:55.650Z,100.00
2022-09-28T02:36:01.115Z,100.00
2022-09-28T02:41:16.915Z,100.00
2022-09-28T02:46:41.146Z,100.00
2022-09-28T02:52:15.779Z,100.00
2022-09-28T02:57:27.884Z,100.00
2022-09-28T03:02:49.645Z,100.00
2022-09-28T03:08:01.074Z,100.00
2022-09-28T03:13:05.276Z,100.00
2022-09-28T03:18:08.663Z,100.00
2022-09-28T03:23:27.123Z,100.00
2022-09-28T03:28:30.303Z,100.00
2022-09-28T03:33:33.367Z,100.00
2022-09-28T03:38:36.468Z,100.00
2022-09-28T03:43:40.058Z,100.00
2022-09-28T03:48:43.258Z,100.00
2022-09-28T03:53:46.291Z,100.00
2022-09-28T03:58:49.375Z,100.00
2022-09-28T04:03:56.153Z,100.00
2022-09-28T04:08:59.462Z,100.00
2022-09-28T04:14:02.570Z,100.00
2022-09-28T04:19:05.608Z,100.00
2022-09-28T04:24:10.400Z,100.00
2022-09-28T04:29:16.298Z,100.00
2022-09-28T04:34:22.095Z,100.00
2022-09-28T04:39:25.166Z,100.00
2022-09-28T04:44:28.172Z,100.00
2022-09-28T04:49:31.706Z,100.00
2022-09-28T04:54:34.841Z,100.00
2022-09-28T04:59:37.954Z,100.00
2022-09-28T05:04:41.434Z,100.00
2022-09-28T05:09:44.559Z,100.00
2022-09-28T05:14:47.846Z,100.00
2022-09-28T05:19:50.848Z,100.00
2022-09-28T05:24:55.388Z,100.00
2022-09-28T05:29:58.599Z,100.00
2022-09-28T05:35:01.493Z,100.00
2022-09-28T05:40:06.793Z,100.00
2022-09-28T05:45:10.781Z,100.00
2022-09-28T05:50:16.344Z,100.00
2022-09-28T05:55:19.557Z,100.00
2022-09-28T06:00:23.600Z,100.00
2022-09-28T06:05:28.227Z,100.00
2022-09-28T06:10:31.938Z,100.00
2022-09-28T06:15:37.124Z,100.00
2022-09-28T06:20:42.553Z,100.00
2022-09-28T06:25:47.058Z,100.00
2022-09-28T06:30:51.297Z,100.00
2022-09-28T06:35:55.062Z,100.00
2022-09-28T06:40:59.528Z,100.00
2022-09-28T06:46:04.102Z,100.00
2022-09-28T06:51:08.598Z,100.00
2022-09-28T06:56:13.054Z,100.00
2022-09-28T07:01:17.481Z,100.00
2022-09-28T07:06:24.735Z,100.00
2022-09-28T07:11:30.460Z,100.00
2022-09-28T07:16:57.512Z,100.00
2022-09-28T07:22:04.478Z,100.00
2022-09-28T07:27:10.132Z,100.00
2022-09-28T07:32:13.446Z,100.00
2022-09-28T07:37:19.109Z,100.00
2022-09-28T07:42:22.532Z,100.00
2022-09-28T07:47:34.582Z,100.00
2022-09-28T07:52:38.360Z,100.00
2022-09-28T07:57:41.977Z,100.00
2022-09-28T08:02:45.353Z,100.00
2022-09-28T08:07:48.391Z,100.00
2022-09-28T08:13:02.142Z,100.00
2022-09-28T08:18:07.309Z,100.00
2022-09-28T08:23:11.791Z,100.00
2022-09-28T08:28:17.823Z,100.00
2022-09-28T08:33:21.942Z,100.00
2022-09-28T08:38:27.072Z,100.00
2022-09-28T08:44:05.019Z,100.00
2022-09-28T08:49:30.738Z,100.00
2022-09-28T08:54:48.996Z,100.00
2022-09-28T08:59:58.726Z,100.00
2022-09-28T09:05:06.866Z,100.00
2022-09-28T09:10:51.070Z,100.00
2022-09-28T09:16:32.845Z,100.00
2022-09-28T09:21:56.360Z,98.52
2022-09-28T09:27:39.612Z,95.99
2022-09-28T09:33:01.354Z,93.93
2022-09-28T09:38:19.717Z,90.96
2022-09-28T09:43:31.595Z,90.01
2022-09-28T09:49:01.054Z,87.91
2022-09-28T09:54:12.557Z,85.41
2022-09-28T09:59:22.504Z,85.52
2022-09-28T10:04:35.424Z,83.68
2022-09-28T10:09:43.597Z,79.99
2022-09-28T10:14:47.412Z,80.30
2022-09-28T10:19:50.714Z,79.71
2022-09-28T10:24:57.924Z,78.52
2022-09-28T10:30:16.796Z,78.24
2022-09-28T10:35:20.203Z,77.99
2022-09-28T10:40:50.733Z,77.31
2022-09-28T10:46:24.009Z,78.70
2022-09-28T10:51:42.226Z,80.34
2022-09-28T10:56:46.397Z,82.04
2022-09-28T11:01:56.216Z,80.86
2022-09-28T11:07:02.122Z,78.69
2022-09-28T11:12:13.794Z,76.01
2022-09-28T11:17:19.055Z,73.84
2022-09-28T11:22:34.447Z,75.49
2022-09-28T11:27:37.857Z,77.25
2022-09-28T11:32:45.720Z,79.29
2022-09-28T11:38:17.863Z,81.04
2022-09-28T11:44:01.129Z,82.53
2022-09-28T11:49:10.154Z,83.05
2022-09-28T11:54:33.843Z,81.06
2022-09-28T11:59:46.981Z,77.83
2022-09-28T12:05:17.202Z,76.50
2022-09-28T12:10:48.496Z,76.25
2022-09-28T12:16:32.749Z,76.66
2022-09-28T12:21:53.378Z,74.39
2022-09-28T12:27:21.261Z,73.48
2022-09-28T12:32:37.782Z,74.31
2022-09-28T12:38:14.989Z,75.42
2022-09-28T12:43:54.853Z,76.07
2022-09-28T12:55:05.417Z,76.76
2022-09-28T13:00:14.989Z,76.32
2022-09-28T13:05:47.056Z,76.16
2022-09-28T13:11:20.766Z,76.27
2022-09-28T13:16:34.217Z,75.33
2022-09-28T13:21:47.778Z,75.52
2022-09-28T13:26:52.583Z,75.25
2022-09-28T13:32:00.452Z,74.88
2022-09-28T13:37:17.667Z,73.95
2022-09-28T13:42:42.280Z,73.46
2022-09-28T13:47:52.872Z,73.49
2022-09-28T13:53:09.474Z,73.20
2022-09-28T13:58:22.608Z,71.59
2022-09-28T14:03:43.734Z,70.97
2022-09-28T14:09:13.694Z,71.51
2022-09-28T14:14:18.304Z,71.32
2022-09-28T14:19:32.572Z,72.18
2022-09-28T14:24:56.085Z,73.28
2022-09-28T14:30:27.454Z,73.73
2022-09-28T14:35:39.845Z,74.70
2022-09-28T14:41:11.528Z,75.44
2022-09-28T14:46:19.318Z,74.81
2022-09-28T14:51:38.102Z,73.29
2022-09-28T14:56:43.972Z,73.22
2022-09-28T15:02:17.272Z,73.96
2022-09-28T15:07:26.816Z,75.10
2022-09-28T15:12:31.794Z,75.42
2022-09-28T15:17:40.005Z,75.80
2022-09-28T15:22:52.267Z,76.47
2022-09-28T15:28:01.959Z,76.62
2022-09-28T15:33:48.560Z,77.09
2022-09-28T15:39:07.170Z,76.97
2022-09-28T15:44:12.577Z,77.67
2022-09-28T15:49:47.516Z,78.09
2022-09-28T15:54:56.497Z,79.11
2022-09-28T16:00:07.028Z,80.33
2022-09-28T16:05:36.915Z,81.54
2022-09-28T16:10:58.705Z,82.82
2022-09-28T16:16:02.814Z,84.21
2022-09-28T16:21:28.820Z,85.01
2022-09-28T16:26:37.898Z,86.18
2022-09-28T16:31:44.408Z,86.92
2022-09-28T16:36:49.664Z,88.07
2022-09-28T16:41:56.971Z,89.39
2022-09-28T16:47:01.307Z,90.40
2022-09-28T16:52:13.853Z,91.29
2022-09-28T16:57:18.490Z,92.36
2022-09-28T17:08:01.042Z,94.37
2022-09-28T17:13:04.666Z,95.06
2022-09-28T17:18:09.092Z,95.81
2022-09-28T17:23:12.710Z,96.40
2022-09-28T17:28:21.033Z,96.89
2022-09-28T17:33:25.612Z,97.21
2022-09-28T17:38:29.704Z,97.68
2022-09-28T17:43:33.114Z,97.46
2022-09-28T17:48:36.994Z,97.55
2022-09-28T17:53:41.344Z,97.42
2022-09-28T17:58:45.404Z,97.59
2022-09-28T18:03:51.085Z,97.67
2022-09-28T18:08:55.931Z,98.17
2022-09-28T18:14:01.052Z,98.36
2022-09-28T18:19:07.486Z,98.16
2022-09-28T18:24:13.029Z,98.02
2022-09-28T18:29:20.651Z,97.61
2022-09-28T18:34:26.121Z,97.41
2022-09-28T18:39:31.255Z,97.46
2022-09-28T18:44:36.185Z,97.51
2022-09-28T18:49:46.450Z,97.88
2022-09-28T18:54:51.277Z,97.71
2022-09-28T18:59:55.884Z,97.76
2022-09-28T19:05:00.398Z,97.90
2022-09-28T19:10:06.304Z,97.89
2022-09-28T19:15:12.358Z,97.99
2022-09-28T19:20:20.512Z,98.01
2022-09-28T19:25:27.537Z,97.99
2022-09-28T19:30:33.195Z,97.99
2022-09-28T19:35:37.840Z,98.06
2022-09-28T19:40:42.777Z,97.95
2022-09-28T19:45:51.174Z,98.00
2022-09-28T19:51:07.079Z,98.12
2022-09-28T19:56:10.991Z,98.35
2022-09-28T20:01:14.328Z,98.44
2022-09-28T20:06:17.912Z,98.79
2022-09-28T20:11:22.137Z,99.31
2022-09-28T20:16:28.111Z,99.92
2022-09-28T20:21:31.928Z,100.00
2022-09-28T20:26:37.954Z,100.00
2022-09-28T20:31:41.430Z,100.00
2022-09-28T20:36:45.218Z,100.00
2022-09-28T20:41:49.886Z,100.00
2022-09-28T20:46:53.399Z,100.00
2022-09-28T20:51:57.221Z,100.00
2022-09-28T20:57:00.360Z,100.00
2022-09-28T21:02:03.882Z,100.00
2022-09-28T21:07:08.869Z,100.00
2022-09-28T21:12:13.133Z,100.00
2022-09-28T21:17:16.853Z,100.00
2022-09-28T21:22:20.055Z,79.80
2022-09-28T21:27:23.368Z,100.00
2022-09-28T21:32:26.412Z,100.00
2022-09-28T21:37:29.777Z,100.00
2022-09-28T21:42:32.782Z,100.00
2022-09-28T21:47:35.999Z,100.00
2022-09-28T21:52:39.853Z,100.00
2022-09-28T21:57:43.227Z,100.00
2022-09-28T22:02:46.344Z,100.00
2022-09-28T22:07:49.642Z,100.00
2022-09-28T22:12:52.662Z,100.00
2022-09-28T22:17:55.757Z,100.00
2022-09-28T22:22:58.857Z,100.00
2022-09-28T22:28:01.963Z,100.00
2022-09-28T22:33:05.172Z,100.00
2022-09-28T22:38:08.689Z,100.00
2022-09-28T22:43:11.895Z,100.00
2022-09-28T22:48:15.817Z,100.00
2022-09-28T22:53:19.744Z,100.00
2022-09-28T22:58:23.979Z,100.00
2022-09-28T23:03:27.184Z,100.00
2022-09-28T23:08:30.499Z,100.00
2022-09-28T23:13:33.599Z,100.00
2022-09-28T23:18:41.126Z,100.00
2022-09-28T23:23:45.783Z,100.00
2022-09-28T23:28:49.063Z,100.00
2022-09-28T23:33:52.779Z,100.00
2022-09-28T23:38:56.101Z,100.00
2022-09-28T23:43:59.204Z,100.00
2022-09-28T23:49:02.514Z,100.00
2022-09-28T23:54:06.915Z,100.00
2022-09-28T23:59:09.956Z,100.00
